sensor_id;sensor_type;location;lat;lon;timestamp;P1;durP1;ratioP1;P2;durP2;ratioP2
5831;SDS011;50943;51.448;7.646;2023-04-24T00:00:49;2.67;;;0.90;;
5831;SDS011;50943;51.448;7.646;2023-04-24T00:03:16;1.90;;;0.80;;
5831;SDS011;50943;51.448;7.646;2023-04-24T00:05:46;1.70;;;0.70;;
5831;SDS011;50943;51.448;7.646;2023-04-24T00:08:12;2.17;;;0.70;;
5831;SDS011;50943;51.448;7.646;2023-04-24T00:10:39;1.50;;;0.70;;
5831;SDS011;50943;51.448;7.646;2023-04-24T00:13:06;1.80;;;0.80;;
5831;SDS011;50943;51.448;7.646;2023-04-24T00:15:34;2.13;;;0.83;;
5831;SDS011;50943;51.448;7.646;2023-04-24T00:18:01;2.10;;;0.90;;
5831;SDS011;50943;51.448;7.646;2023-04-24T00:20:28;2.00;;;0.60;;
5831;SDS011;50943;51.448;7.646;2023-04-24T00:22:57;2.50;;;0.80;;
5831;SDS011;50943;51.448;7.646;2023-04-24T00:25:24;1.60;;;0.70;;
5831;SDS011;50943;51.448;7.646;2023-04-24T00:27:52;1.80;;;0.80;;
5831;SDS011;50943;51.448;7.646;2023-04-24T00:30:19;2.10;;;1.00;;
5831;SDS011;50943;51.448;7.646;2023-04-24T00:32:48;2.77;;;0.90;;
5831;SDS011;50943;51.448;7.646;2023-04-24T00:35:15;1.70;;;0.90;;
5831;SDS011;50943;51.448;7.646;2023-04-24T00:37:42;2.43;;;1.00;;
5831;SDS011;50943;51.448;7.646;2023-04-24T00:40:09;1.93;;;0.90;;
5831;SDS011;50943;51.448;7.646;2023-04-24T00:42:36;1.87;;;0.80;;
5831;SDS011;50943;51.448;7.646;2023-04-24T00:45:03;1.60;;;0.80;;
5831;SDS011;50943;51.448;7.646;2023-04-24T00:47:31;1.60;;;0.80;;
5831;SDS011;50943;51.448;7.646;2023-04-24T00:50:01;2.20;;;0.93;;
5831;SDS011;50943;51.448;7.646;2023-04-24T00:52:30;3.70;;;1.10;;
5831;SDS011;50943;51.448;7.646;2023-04-24T00:54:57;1.70;;;0.90;;
5831;SDS011;50943;51.448;7.646;2023-04-24T00:57:24;2.30;;;1.00;;
5831;SDS011;50943;51.448;7.646;2023-04-24T00:59:51;1.83;;;1.00;;
5831;SDS011;50943;51.448;7.646;2023-04-24T01:02:18;2.20;;;1.00;;
5831;SDS011;50943;51.448;7.646;2023-04-24T01:04:46;2.47;;;1.30;;
5831;SDS011;50943;51.448;7.646;2023-04-24T01:07:14;1.80;;;0.90;;
5831;SDS011;50943;51.448;7.646;2023-04-24T01:09:41;2.87;;;1.00;;
5831;SDS011;50943;51.448;7.646;2023-04-24T01:12:08;2.20;;;0.90;;
5831;SDS011;50943;51.448;7.646;2023-04-24T01:14:34;2.13;;;1.00;;
5831;SDS011;50943;51.448;7.646;2023-04-24T01:17:01;1.97;;;1.00;;
5831;SDS011;50943;51.448;7.646;2023-04-24T01:19:28;1.70;;;0.90;;
5831;SDS011;50943;51.448;7.646;2023-04-24T01:21:56;2.43;;;1.13;;
5831;SDS011;50943;51.448;7.646;2023-04-24T01:24:26;2.20;;;1.10;;
5831;SDS011;50943;51.448;7.646;2023-04-24T01:26:53;1.73;;;0.97;;
5831;SDS011;50943;51.448;7.646;2023-04-24T01:29:20;3.90;;;1.03;;
5831;SDS011;50943;51.448;7.646;2023-04-24T01:31:47;1.80;;;0.87;;
5831;SDS011;50943;51.448;7.646;2023-04-24T01:34:13;2.60;;;1.00;;
5831;SDS011;50943;51.448;7.646;2023-04-24T01:36:40;2.30;;;0.97;;
5831;SDS011;50943;51.448;7.646;2023-04-24T01:39:08;3.40;;;1.00;;
5831;SDS011;50943;51.448;7.646;2023-04-24T01:41:38;1.60;;;0.80;;
5831;SDS011;50943;51.448;7.646;2023-04-24T01:44:04;4.13;;;1.10;;
5831;SDS011;50943;51.448;7.646;2023-04-24T01:46:31;2.57;;;1.10;;
5831;SDS011;50943;51.448;7.646;2023-04-24T01:48:59;2.63;;;0.90;;
5831;SDS011;50943;51.448;7.646;2023-04-24T01:51:26;1.80;;;0.90;;
5831;SDS011;50943;51.448;7.646;2023-04-24T01:53:53;2.10;;;1.00;;
5831;SDS011;50943;51.448;7.646;2023-04-24T01:56:20;2.50;;;1.07;;
5831;SDS011;50943;51.448;7.646;2023-04-24T01:58:49;2.13;;;0.97;;
5831;SDS011;50943;51.448;7.646;2023-04-24T02:01:17;1.90;;;1.00;;
5831;SDS011;50943;51.448;7.646;2023-04-24T02:03:45;1.57;;;0.80;;
5831;SDS011;50943;51.448;7.646;2023-04-24T02:06:11;2.00;;;0.90;;
5831;SDS011;50943;51.448;7.646;2023-04-24T02:08:38;2.80;;;0.90;;
5831;SDS011;50943;51.448;7.646;2023-04-24T02:11:04;2.03;;;1.13;;
5831;SDS011;50943;51.448;7.646;2023-04-24T02:13:31;3.17;;;1.30;;
5831;SDS011;50943;51.448;7.646;2023-04-24T02:16:04;2.97;;;1.57;;
5831;SDS011;50943;51.448;7.646;2023-04-24T02:18:32;3.50;;;1.20;;
5831;SDS011;50943;51.448;7.646;2023-04-24T02:20:58;2.00;;;1.30;;
5831;SDS011;50943;51.448;7.646;2023-04-24T02:23:25;3.33;;;1.57;;
5831;SDS011;50943;51.448;7.646;2023-04-24T02:25:52;2.20;;;1.40;;
5831;SDS011;50943;51.448;7.646;2023-04-24T02:28:19;4.40;;;2.00;;
5831;SDS011;50943;51.448;7.646;2023-04-24T02:30:46;4.63;;;1.57;;
5831;SDS011;50943;51.448;7.646;2023-04-24T02:33:14;4.77;;;2.00;;
5831;SDS011;50943;51.448;7.646;2023-04-24T02:35:41;7.70;;;1.97;;
5831;SDS011;50943;51.448;7.646;2023-04-24T02:38:07;3.80;;;2.03;;
5831;SDS011;50943;51.448;7.646;2023-04-24T02:40:34;4.60;;;1.60;;
5831;SDS011;50943;51.448;7.646;2023-04-24T02:43:00;4.67;;;2.37;;
5831;SDS011;50943;51.448;7.646;2023-04-24T02:45:27;4.67;;;2.20;;
5831;SDS011;50943;51.448;7.646;2023-04-24T02:47:53;3.67;;;2.30;;
5831;SDS011;50943;51.448;7.646;2023-04-24T02:50:21;4.00;;;2.10;;
5831;SDS011;50943;51.448;7.646;2023-04-24T02:52:48;3.10;;;2.00;;
5831;SDS011;50943;51.448;7.646;2023-04-24T02:55:17;3.97;;;2.37;;
5831;SDS011;50943;51.448;7.646;2023-04-24T02:57:43;4.23;;;2.57;;
5831;SDS011;50943;51.448;7.646;2023-04-24T03:00:11;4.60;;;2.40;;
5831;SDS011;50943;51.448;7.646;2023-04-24T03:02:38;4.40;;;2.43;;
5831;SDS011;50943;51.448;7.646;2023-04-24T03:05:05;3.80;;;1.90;;
5831;SDS011;50943;51.448;7.646;2023-04-24T03:07:33;3.70;;;2.13;;
5831;SDS011;50943;51.448;7.646;2023-04-24T03:10:00;6.10;;;3.00;;
5831;SDS011;50943;51.448;7.646;2023-04-24T03:12:27;7.60;;;3.70;;
5831;SDS011;50943;51.448;7.646;2023-04-24T03:14:56;7.57;;;3.40;;
5831;SDS011;50943;51.448;7.646;2023-04-24T03:17:22;6.90;;;4.63;;
5831;SDS011;50943;51.448;7.646;2023-04-24T03:19:50;8.00;;;5.10;;
5831;SDS011;50943;51.448;7.646;2023-04-24T03:22:17;9.87;;;4.60;;
5831;SDS011;50943;51.448;7.646;2023-04-24T03:24:45;8.73;;;5.70;;
5831;SDS011;50943;51.448;7.646;2023-04-24T03:27:11;13.73;;;7.60;;
5831;SDS011;50943;51.448;7.646;2023-04-24T03:29:38;11.50;;;6.80;;
5831;SDS011;50943;51.448;7.646;2023-04-24T03:32:05;12.03;;;8.07;;
5831;SDS011;50943;51.448;7.646;2023-04-24T03:34:31;14.87;;;7.97;;
5831;SDS011;50943;51.448;7.646;2023-04-24T03:36:58;11.30;;;7.27;;
5831;SDS011;50943;51.448;7.646;2023-04-24T03:39:24;12.90;;;7.77;;
5831;SDS011;50943;51.448;7.646;2023-04-24T03:41:53;15.00;;;8.40;;
5831;SDS011;50943;51.448;7.646;2023-04-24T03:44:20;12.67;;;8.30;;
5831;SDS011;50943;51.448;7.646;2023-04-24T03:46:47;12.30;;;7.33;;
5831;SDS011;50943;51.448;7.646;2023-04-24T03:49:13;13.47;;;8.20;;
5831;SDS011;50943;51.448;7.646;2023-04-24T03:51:40;14.27;;;8.23;;
5831;SDS011;50943;51.448;7.646;2023-04-24T03:54:06;13.77;;;9.07;;
5831;SDS011;50943;51.448;7.646;2023-04-24T03:56:33;18.83;;;9.20;;
5831;SDS011;50943;51.448;7.646;2023-04-24T03:59:01;16.07;;;8.93;;
5831;SDS011;50943;51.448;7.646;2023-04-24T04:01:28;13.93;;;9.20;;
5831;SDS011;50943;51.448;7.646;2023-04-24T04:03:55;15.47;;;9.70;;
5831;SDS011;50943;51.448;7.646;2023-04-24T04:06:22;15.57;;;8.93;;
5831;SDS011;50943;51.448;7.646;2023-04-24T04:08:49;18.23;;;9.23;;
5831;SDS011;50943;51.448;7.646;2023-04-24T04:11:15;14.63;;;8.70;;
5831;SDS011;50943;51.448;7.646;2023-04-24T04:13:42;14.63;;;8.47;;
5831;SDS011;50943;51.448;7.646;2023-04-24T04:16:10;12.63;;;8.67;;
5831;SDS011;50943;51.448;7.646;2023-04-24T04:18:36;13.33;;;8.87;;
5831;SDS011;50943;51.448;7.646;2023-04-24T04:21:03;15.13;;;7.67;;
5831;SDS011;50943;51.448;7.646;2023-04-24T04:23:30;12.43;;;8.10;;
5831;SDS011;50943;51.448;7.646;2023-04-24T04:25:57;13.20;;;7.77;;
5831;SDS011;50943;51.448;7.646;2023-04-24T04:28:24;13.97;;;8.27;;
5831;SDS011;50943;51.448;7.646;2023-04-24T04:30:51;13.03;;;8.00;;
5831;SDS011;50943;51.448;7.646;2023-04-24T04:33:20;16.57;;;8.23;;
5831;SDS011;50943;51.448;7.646;2023-04-24T04:35:46;13.20;;;8.70;;
5831;SDS011;50943;51.448;7.646;2023-04-24T04:38:14;18.50;;;8.83;;
5831;SDS011;50943;51.448;7.646;2023-04-24T04:40:41;17.73;;;8.53;;
5831;SDS011;50943;51.448;7.646;2023-04-24T04:43:08;14.70;;;8.57;;
5831;SDS011;50943;51.448;7.646;2023-04-24T04:45:35;14.73;;;8.70;;
5831;SDS011;50943;51.448;7.646;2023-04-24T04:48:02;15.27;;;8.13;;
5831;SDS011;50943;51.448;7.646;2023-04-24T04:50:30;14.20;;;8.60;;
5831;SDS011;50943;51.448;7.646;2023-04-24T04:52:56;14.80;;;8.10;;
5831;SDS011;50943;51.448;7.646;2023-04-24T04:55:23;12.53;;;7.57;;
5831;SDS011;50943;51.448;7.646;2023-04-24T04:57:50;18.27;;;7.97;;
5831;SDS011;50943;51.448;7.646;2023-04-24T05:00:17;17.10;;;10.17;;
5831;SDS011;50943;51.448;7.646;2023-04-24T05:02:44;12.87;;;7.27;;
5831;SDS011;50943;51.448;7.646;2023-04-24T05:05:10;13.50;;;8.70;;
5831;SDS011;50943;51.448;7.646;2023-04-24T05:07:39;15.73;;;8.03;;
5831;SDS011;50943;51.448;7.646;2023-04-24T05:10:06;13.87;;;8.50;;
5831;SDS011;50943;51.448;7.646;2023-04-24T05:12:33;13.90;;;8.67;;
5831;SDS011;50943;51.448;7.646;2023-04-24T05:15:00;15.30;;;9.30;;
5831;SDS011;50943;51.448;7.646;2023-04-24T05:17:27;18.73;;;9.30;;
5831;SDS011;50943;51.448;7.646;2023-04-24T05:19:54;14.60;;;9.33;;
5831;SDS011;50943;51.448;7.646;2023-04-24T05:22:21;14.57;;;9.30;;
5831;SDS011;50943;51.448;7.646;2023-04-24T05:24:51;16.90;;;9.33;;
5831;SDS011;50943;51.448;7.646;2023-04-24T05:27:18;15.00;;;8.87;;
5831;SDS011;50943;51.448;7.646;2023-04-24T05:29:45;14.23;;;9.00;;
5831;SDS011;50943;51.448;7.646;2023-04-24T05:32:12;17.90;;;8.77;;
5831;SDS011;50943;51.448;7.646;2023-04-24T05:34:39;14.27;;;8.10;;
5831;SDS011;50943;51.448;7.646;2023-04-24T05:37:06;10.30;;;7.40;;
5831;SDS011;50943;51.448;7.646;2023-04-24T05:39:35;13.10;;;7.50;;
5831;SDS011;50943;51.448;7.646;2023-04-24T05:42:03;13.23;;;6.97;;
5831;SDS011;50943;51.448;7.646;2023-04-24T05:44:30;14.73;;;8.27;;
5831;SDS011;50943;51.448;7.646;2023-04-24T05:46:57;12.63;;;6.20;;
5831;SDS011;50943;51.448;7.646;2023-04-24T05:49:24;12.73;;;6.57;;
5831;SDS011;50943;51.448;7.646;2023-04-24T05:51:51;13.20;;;7.10;;
5831;SDS011;50943;51.448;7.646;2023-04-24T05:54:17;15.53;;;8.30;;
5831;SDS011;50943;51.448;7.646;2023-04-24T05:56:44;9.17;;;6.20;;
5831;SDS011;50943;51.448;7.646;2023-04-24T05:59:12;11.20;;;6.27;;
5831;SDS011;50943;51.448;7.646;2023-04-24T06:01:41;12.00;;;6.80;;
5831;SDS011;50943;51.448;7.646;2023-04-24T06:04:07;10.40;;;6.37;;
5831;SDS011;50943;51.448;7.646;2023-04-24T06:06:36;12.90;;;5.63;;
5831;SDS011;50943;51.448;7.646;2023-04-24T06:09:03;9.23;;;5.23;;
5831;SDS011;50943;51.448;7.646;2023-04-24T06:11:29;8.80;;;5.67;;
5831;SDS011;50943;51.448;7.646;2023-04-24T06:13:56;7.70;;;5.30;;
5831;SDS011;50943;51.448;7.646;2023-04-24T06:16:24;8.80;;;6.50;;
5831;SDS011;50943;51.448;7.646;2023-04-24T06:18:51;10.77;;;6.33;;
5831;SDS011;50943;51.448;7.646;2023-04-24T06:21:18;10.70;;;6.30;;
5831;SDS011;50943;51.448;7.646;2023-04-24T06:23:44;9.93;;;6.00;;
5831;SDS011;50943;51.448;7.646;2023-04-24T06:26:11;11.77;;;5.87;;
5831;SDS011;50943;51.448;7.646;2023-04-24T06:28:38;9.57;;;6.07;;
5831;SDS011;50943;51.448;7.646;2023-04-24T06:31:05;8.97;;;5.60;;
5831;SDS011;50943;51.448;7.646;2023-04-24T06:33:32;10.93;;;5.53;;
5831;SDS011;50943;51.448;7.646;2023-04-24T06:35:59;9.50;;;5.73;;
5831;SDS011;50943;51.448;7.646;2023-04-24T06:38:25;10.00;;;5.50;;
5831;SDS011;50943;51.448;7.646;2023-04-24T06:40:52;8.27;;;5.17;;
5831;SDS011;50943;51.448;7.646;2023-04-24T06:43:19;10.13;;;5.93;;
5831;SDS011;50943;51.448;7.646;2023-04-24T06:45:46;8.77;;;5.20;;
5831;SDS011;50943;51.448;7.646;2023-04-24T06:48:13;6.93;;;4.70;;
5831;SDS011;50943;51.448;7.646;2023-04-24T06:50:41;11.83;;;4.13;;
5831;SDS011;50943;51.448;7.646;2023-04-24T06:53:08;6.10;;;4.10;;
5831;SDS011;50943;51.448;7.646;2023-04-24T06:55:37;5.63;;;3.50;;
5831;SDS011;50943;51.448;7.646;2023-04-24T06:58:04;6.37;;;4.30;;
5831;SDS011;50943;51.448;7.646;2023-04-24T07:00:31;6.87;;;4.10;;
5831;SDS011;50943;51.448;7.646;2023-04-24T07:02:58;6.50;;;4.20;;
5831;SDS011;50943;51.448;7.646;2023-04-24T07:05:24;6.53;;;3.80;;
5831;SDS011;50943;51.448;7.646;2023-04-24T07:07:52;6.83;;;3.80;;
5831;SDS011;50943;51.448;7.646;2023-04-24T07:10:19;6.40;;;4.27;;
5831;SDS011;50943;51.448;7.646;2023-04-24T07:12:46;7.60;;;4.37;;
5831;SDS011;50943;51.448;7.646;2023-04-24T07:15:12;7.10;;;4.27;;
5831;SDS011;50943;51.448;7.646;2023-04-24T07:17:39;5.30;;;3.77;;
5831;SDS011;50943;51.448;7.646;2023-04-24T07:20:08;6.80;;;4.40;;
5831;SDS011;50943;51.448;7.646;2023-04-24T07:22:35;6.77;;;3.97;;
5831;SDS011;50943;51.448;7.646;2023-04-24T07:25:04;7.23;;;4.80;;
5831;SDS011;50943;51.448;7.646;2023-04-24T07:27:31;9.70;;;4.67;;
5831;SDS011;50943;51.448;7.646;2023-04-24T07:29:58;8.27;;;4.90;;
5831;SDS011;50943;51.448;7.646;2023-04-24T07:32:25;8.13;;;4.60;;
5831;SDS011;50943;51.448;7.646;2023-04-24T07:34:52;8.83;;;5.37;;
5831;SDS011;50943;51.448;7.646;2023-04-24T07:37:18;7.90;;;4.97;;
5831;SDS011;50943;51.448;7.646;2023-04-24T07:39:45;5.87;;;4.10;;
5831;SDS011;50943;51.448;7.646;2023-04-24T07:42:13;9.60;;;4.27;;
5831;SDS011;50943;51.448;7.646;2023-04-24T07:44:39;5.17;;;3.40;;
5831;SDS011;50943;51.448;7.646;2023-04-24T07:47:06;4.90;;;2.90;;
5831;SDS011;50943;51.448;7.646;2023-04-24T07:49:32;4.90;;;3.20;;
5831;SDS011;50943;51.448;7.646;2023-04-24T07:51:59;7.67;;;3.67;;
5831;SDS011;50943;51.448;7.646;2023-04-24T07:54:27;5.83;;;3.60;;
5831;SDS011;50943;51.448;7.646;2023-04-24T07:56:54;4.53;;;2.80;;
5831;SDS011;50943;51.448;7.646;2023-04-24T07:59:22;6.43;;;2.97;;
5831;SDS011;50943;51.448;7.646;2023-04-24T08:01:49;5.97;;;2.40;;
5831;SDS011;50943;51.448;7.646;2023-04-24T08:04:15;4.23;;;2.37;;
5831;SDS011;50943;51.448;7.646;2023-04-24T08:06:42;3.60;;;2.13;;
5831;SDS011;50943;51.448;7.646;2023-04-24T08:09:09;3.43;;;2.07;;
5831;SDS011;50943;51.448;7.646;2023-04-24T08:11:39;3.13;;;2.00;;
5831;SDS011;50943;51.448;7.646;2023-04-24T08:14:05;4.43;;;2.47;;
5831;SDS011;50943;51.448;7.646;2023-04-24T08:16:33;3.23;;;2.00;;
5831;SDS011;50943;51.448;7.646;2023-04-24T08:19:00;3.10;;;1.80;;
5831;SDS011;50943;51.448;7.646;2023-04-24T08:21:26;2.17;;;1.30;;
5831;SDS011;50943;51.448;7.646;2023-04-24T08:23:53;3.67;;;1.20;;
5831;SDS011;50943;51.448;7.646;2023-04-24T08:26:19;2.30;;;1.40;;
5831;SDS011;50943;51.448;7.646;2023-04-24T08:28:46;2.40;;;0.97;;
5831;SDS011;50943;51.448;7.646;2023-04-24T08:31:13;1.90;;;1.00;;
5831;SDS011;50943;51.448;7.646;2023-04-24T08:33:40;2.00;;;0.90;;
5831;SDS011;50943;51.448;7.646;2023-04-24T08:36:11;1.90;;;0.97;;
5831;SDS011;50943;51.448;7.646;2023-04-24T08:38:37;3.53;;;1.10;;
5831;SDS011;50943;51.448;7.646;2023-04-24T08:41:04;1.60;;;0.80;;
5831;SDS011;50943;51.448;7.646;2023-04-24T08:43:32;1.90;;;0.80;;
5831;SDS011;50943;51.448;7.646;2023-04-24T08:45:59;1.70;;;0.80;;
5831;SDS011;50943;51.448;7.646;2023-04-24T08:48:26;1.80;;;0.90;;
5831;SDS011;50943;51.448;7.646;2023-04-24T08:50:55;1.90;;;0.90;;
5831;SDS011;50943;51.448;7.646;2023-04-24T08:53:22;2.87;;;0.80;;
5831;SDS011;50943;51.448;7.646;2023-04-24T08:55:50;2.27;;;0.90;;
5831;SDS011;50943;51.448;7.646;2023-04-24T08:58:17;2.00;;;0.80;;
5831;SDS011;50943;51.448;7.646;2023-04-24T09:00:45;1.70;;;0.70;;
5831;SDS011;50943;51.448;7.646;2023-04-24T09:03:13;1.50;;;0.60;;
5831;SDS011;50943;51.448;7.646;2023-04-24T09:05:40;1.80;;;0.70;;
5831;SDS011;50943;51.448;7.646;2023-04-24T09:08:12;2.17;;;0.90;;
5831;SDS011;50943;51.448;7.646;2023-04-24T09:10:39;2.20;;;0.70;;
5831;SDS011;50943;51.448;7.646;2023-04-24T09:13:06;1.50;;;0.60;;
5831;SDS011;50943;51.448;7.646;2023-04-24T09:15:34;1.50;;;0.57;;
5831;SDS011;50943;51.448;7.646;2023-04-24T09:18:01;3.30;;;0.60;;
5831;SDS011;50943;51.448;7.646;2023-04-24T09:20:27;4.27;;;0.70;;
5831;SDS011;50943;51.448;7.646;2023-04-24T09:22:54;1.70;;;0.70;;
5831;SDS011;50943;51.448;7.646;2023-04-24T09:25:23;1.50;;;0.60;;
5831;SDS011;50943;51.448;7.646;2023-04-24T09:27:53;1.80;;;0.70;;
5831;SDS011;50943;51.448;7.646;2023-04-24T09:30:21;4.27;;;0.80;;
5831;SDS011;50943;51.448;7.646;2023-04-24T09:32:48;2.30;;;0.77;;
5831;SDS011;50943;51.448;7.646;2023-04-24T09:35:14;1.87;;;0.70;;
5831;SDS011;50943;51.448;7.646;2023-04-24T09:37:42;1.70;;;0.70;;
5831;SDS011;50943;51.448;7.646;2023-04-24T09:40:14;1.97;;;0.80;;
5831;SDS011;50943;51.448;7.646;2023-04-24T09:42:50;3.43;;;0.83;;
5831;SDS011;50943;51.448;7.646;2023-04-24T09:45:18;2.40;;;0.90;;
5831;SDS011;50943;51.448;7.646;2023-04-24T09:47:45;2.93;;;1.30;;
5831;SDS011;50943;51.448;7.646;2023-04-24T09:50:12;3.30;;;1.17;;
5831;SDS011;50943;51.448;7.646;2023-04-24T09:52:40;3.10;;;1.37;;
5831;SDS011;50943;51.448;7.646;2023-04-24T09:55:13;2.87;;;1.00;;
5831;SDS011;50943;51.448;7.646;2023-04-24T09:57:52;2.80;;;1.17;;
5831;SDS011;50943;51.448;7.646;2023-04-24T10:00:21;2.30;;;1.13;;
5831;SDS011;50943;51.448;7.646;2023-04-24T10:02:58;2.93;;;1.30;;
5831;SDS011;50943;51.448;7.646;2023-04-24T10:05:27;3.40;;;1.20;;
5831;SDS011;50943;51.448;7.646;2023-04-24T10:07:57;3.50;;;1.20;;
5831;SDS011;50943;51.448;7.646;2023-04-24T10:10:26;3.50;;;1.20;;
5831;SDS011;50943;51.448;7.646;2023-04-24T10:12:54;2.00;;;1.00;;
5831;SDS011;50943;51.448;7.646;2023-04-24T10:15:21;3.20;;;1.30;;
5831;SDS011;50943;51.448;7.646;2023-04-24T10:17:48;2.63;;;1.20;;
5831;SDS011;50943;51.448;7.646;2023-04-24T10:20:17;2.93;;;1.20;;
5831;SDS011;50943;51.448;7.646;2023-04-24T10:22:47;2.30;;;1.10;;
5831;SDS011;50943;51.448;7.646;2023-04-24T10:25:16;5.10;;;2.23;;
5831;SDS011;50943;51.448;7.646;2023-04-24T10:27:44;3.70;;;1.97;;
5831;SDS011;50943;51.448;7.646;2023-04-24T10:30:14;7.00;;;2.23;;
5831;SDS011;50943;51.448;7.646;2023-04-24T10:32:41;4.37;;;2.20;;
5831;SDS011;50943;51.448;7.646;2023-04-24T10:35:08;4.37;;;2.57;;
5831;SDS011;50943;51.448;7.646;2023-04-24T10:37:35;4.90;;;2.70;;
5831;SDS011;50943;51.448;7.646;2023-04-24T10:40:03;5.87;;;3.07;;
5831;SDS011;50943;51.448;7.646;2023-04-24T10:42:31;6.47;;;3.27;;
5831;SDS011;50943;51.448;7.646;2023-04-24T10:44:57;6.40;;;3.50;;
5831;SDS011;50943;51.448;7.646;2023-04-24T10:47:28;6.57;;;3.50;;
5831;SDS011;50943;51.448;7.646;2023-04-24T10:49:55;5.07;;;2.87;;
5831;SDS011;50943;51.448;7.646;2023-04-24T10:52:30;5.97;;;3.00;;
5831;SDS011;50943;51.448;7.646;2023-04-24T10:55:10;5.60;;;2.70;;
5831;SDS011;50943;51.448;7.646;2023-04-24T10:57:38;4.30;;;2.30;;
5831;SDS011;50943;51.448;7.646;2023-04-24T11:00:15;4.83;;;2.63;;
5831;SDS011;50943;51.448;7.646;2023-04-24T11:02:47;14.20;;;2.80;;
5831;SDS011;50943;51.448;7.646;2023-04-24T11:05:18;5.80;;;3.20;;
5831;SDS011;50943;51.448;7.646;2023-04-24T11:10:46;6.17;;;3.27;;
5831;SDS011;50943;51.448;7.646;2023-04-24T11:13:16;8.30;;;3.40;;
5831;SDS011;50943;51.448;7.646;2023-04-24T11:15:43;11.50;;;3.90;;
5831;SDS011;50943;51.448;7.646;2023-04-24T11:18:14;6.10;;;3.50;;
5831;SDS011;50943;51.448;7.646;2023-04-24T11:20:41;5.33;;;3.33;;
5831;SDS011;50943;51.448;7.646;2023-04-24T11:23:08;7.17;;;3.63;;
5831;SDS011;50943;51.448;7.646;2023-04-24T11:25:35;7.63;;;3.80;;
5831;SDS011;50943;51.448;7.646;2023-04-24T11:28:05;10.67;;;5.00;;
5831;SDS011;50943;51.448;7.646;2023-04-24T11:30:32;9.60;;;4.70;;
5831;SDS011;50943;51.448;7.646;2023-04-24T11:33:03;11.37;;;5.43;;
5831;SDS011;50943;51.448;7.646;2023-04-24T11:35:31;13.27;;;5.40;;
5831;SDS011;50943;51.448;7.646;2023-04-24T11:38:02;13.03;;;5.03;;
5831;SDS011;50943;51.448;7.646;2023-04-24T11:40:30;13.50;;;5.47;;
5831;SDS011;50943;51.448;7.646;2023-04-24T11:42:59;11.97;;;5.53;;
5831;SDS011;50943;51.448;7.646;2023-04-24T11:45:26;11.77;;;5.70;;
5831;SDS011;50943;51.448;7.646;2023-04-24T11:47:53;16.80;;;6.00;;
5831;SDS011;50943;51.448;7.646;2023-04-24T11:50:21;17.37;;;7.60;;
5831;SDS011;50943;51.448;7.646;2023-04-24T11:52:50;11.93;;;6.10;;
5831;SDS011;50943;51.448;7.646;2023-04-24T11:55:23;13.00;;;6.40;;
5831;SDS011;50943;51.448;7.646;2023-04-24T11:57:54;14.83;;;6.63;;
5831;SDS011;50943;51.448;7.646;2023-04-24T12:00:23;9.10;;;5.63;;
5831;SDS011;50943;51.448;7.646;2023-04-24T12:02:50;15.70;;;6.80;;
5831;SDS011;50943;51.448;7.646;2023-04-24T12:05:20;12.00;;;6.30;;
5831;SDS011;50943;51.448;7.646;2023-04-24T12:07:46;15.47;;;6.90;;
5831;SDS011;50943;51.448;7.646;2023-04-24T12:10:19;17.20;;;7.20;;
5831;SDS011;50943;51.448;7.646;2023-04-24T12:12:46;12.97;;;7.20;;
5831;SDS011;50943;51.448;7.646;2023-04-24T12:15:15;13.13;;;7.43;;
5831;SDS011;50943;51.448;7.646;2023-04-24T12:17:43;10.17;;;6.50;;
5831;SDS011;50943;51.448;7.646;2023-04-24T12:20:10;12.53;;;6.50;;
5831;SDS011;50943;51.448;7.646;2023-04-24T12:22:44;13.27;;;7.20;;
5831;SDS011;50943;51.448;7.646;2023-04-24T12:25:12;17.83;;;8.07;;
5831;SDS011;50943;51.448;7.646;2023-04-24T12:27:41;15.40;;;8.20;;
5831;SDS011;50943;51.448;7.646;2023-04-24T12:30:10;16.13;;;8.10;;
5831;SDS011;50943;51.448;7.646;2023-04-24T12:32:40;14.60;;;9.00;;
5831;SDS011;50943;51.448;7.646;2023-04-24T12:35:07;13.73;;;7.00;;
5831;SDS011;50943;51.448;7.646;2023-04-24T12:37:35;18.30;;;6.20;;
5831;SDS011;50943;51.448;7.646;2023-04-24T12:40:02;12.17;;;5.97;;
5831;SDS011;50943;51.448;7.646;2023-04-24T12:42:31;18.70;;;7.60;;
5831;SDS011;50943;51.448;7.646;2023-04-24T12:45:03;11.57;;;6.90;;
5831;SDS011;50943;51.448;7.646;2023-04-24T12:47:32;9.73;;;5.30;;
5831;SDS011;50943;51.448;7.646;2023-04-24T12:49:59;13.97;;;5.80;;
5831;SDS011;50943;51.448;7.646;2023-04-24T12:52:26;11.37;;;6.00;;
5831;SDS011;50943;51.448;7.646;2023-04-24T12:54:54;11.37;;;5.73;;
5831;SDS011;50943;51.448;7.646;2023-04-24T12:57:21;18.03;;;5.33;;
5831;SDS011;50943;51.448;7.646;2023-04-24T12:59:48;14.17;;;5.30;;
5831;SDS011;50943;51.448;7.646;2023-04-24T13:02:17;10.47;;;3.80;;
5831;SDS011;50943;51.448;7.646;2023-04-24T13:04:44;11.80;;;4.03;;
5831;SDS011;50943;51.448;7.646;2023-04-24T13:07:11;10.70;;;4.90;;
5831;SDS011;50943;51.448;7.646;2023-04-24T13:09:39;10.57;;;4.27;;
5831;SDS011;50943;51.448;7.646;2023-04-24T13:12:06;6.37;;;3.33;;
5831;SDS011;50943;51.448;7.646;2023-04-24T13:14:32;10.07;;;4.30;;
5831;SDS011;50943;51.448;7.646;2023-04-24T13:16:59;8.17;;;4.10;;
5831;SDS011;50943;51.448;7.646;2023-04-24T13:19:27;12.07;;;4.43;;
5831;SDS011;50943;51.448;7.646;2023-04-24T13:21:54;9.37;;;4.50;;
5831;SDS011;50943;51.448;7.646;2023-04-24T13:24:22;9.47;;;3.93;;
5831;SDS011;50943;51.448;7.646;2023-04-24T13:26:50;9.30;;;4.13;;
5831;SDS011;50943;51.448;7.646;2023-04-24T13:29:17;11.23;;;3.80;;
5831;SDS011;50943;51.448;7.646;2023-04-24T13:31:43;9.77;;;3.73;;
5831;SDS011;50943;51.448;7.646;2023-04-24T13:34:10;14.63;;;5.97;;
5831;SDS011;50943;51.448;7.646;2023-04-24T13:36:38;11.93;;;4.43;;
5831;SDS011;50943;51.448;7.646;2023-04-24T13:39:05;7.60;;;4.43;;
5831;SDS011;50943;51.448;7.646;2023-04-24T13:41:32;7.07;;;3.63;;
5831;SDS011;50943;51.448;7.646;2023-04-24T13:44:00;14.53;;;5.30;;
5831;SDS011;50943;51.448;7.646;2023-04-24T13:46:27;8.07;;;3.63;;
5831;SDS011;50943;51.448;7.646;2023-04-24T13:48:53;8.70;;;3.40;;
5831;SDS011;50943;51.448;7.646;2023-04-24T13:51:20;7.63;;;3.10;;
5831;SDS011;50943;51.448;7.646;2023-04-24T13:53:48;7.77;;;3.80;;
5831;SDS011;50943;51.448;7.646;2023-04-24T13:56:14;9.97;;;2.73;;
5831;SDS011;50943;51.448;7.646;2023-04-24T13:58:41;7.87;;;2.73;;
5831;SDS011;50943;51.448;7.646;2023-04-24T14:01:07;5.33;;;2.50;;
5831;SDS011;50943;51.448;7.646;2023-04-24T14:03:37;6.33;;;3.00;;
5831;SDS011;50943;51.448;7.646;2023-04-24T14:06:03;4.87;;;2.53;;
5831;SDS011;50943;51.448;7.646;2023-04-24T14:08:31;7.77;;;3.60;;
5831;SDS011;50943;51.448;7.646;2023-04-24T14:10:59;7.30;;;2.13;;
5831;SDS011;50943;51.448;7.646;2023-04-24T14:13:25;5.27;;;2.13;;
5831;SDS011;50943;51.448;7.646;2023-04-24T14:15:52;4.83;;;1.87;;
5831;SDS011;50943;51.448;7.646;2023-04-24T14:18:19;4.50;;;2.00;;
5831;SDS011;50943;51.448;7.646;2023-04-24T14:20:46;4.57;;;2.17;;
5831;SDS011;50943;51.448;7.646;2023-04-24T14:23:13;7.13;;;2.80;;
5831;SDS011;50943;51.448;7.646;2023-04-24T14:25:40;6.50;;;2.63;;
5831;SDS011;50943;51.448;7.646;2023-04-24T14:28:08;5.10;;;2.60;;
5831;SDS011;50943;51.448;7.646;2023-04-24T14:30:35;5.30;;;2.77;;
5831;SDS011;50943;51.448;7.646;2023-04-24T14:33:02;7.17;;;2.43;;
5831;SDS011;50943;51.448;7.646;2023-04-24T14:35:29;5.60;;;2.17;;
5831;SDS011;50943;51.448;7.646;2023-04-24T14:37:56;6.13;;;3.20;;
5831;SDS011;50943;51.448;7.646;2023-04-24T14:40:23;8.07;;;2.70;;
5831;SDS011;50943;51.448;7.646;2023-04-24T14:42:49;4.83;;;2.30;;
5831;SDS011;50943;51.448;7.646;2023-04-24T14:45:17;4.60;;;1.73;;
5831;SDS011;50943;51.448;7.646;2023-04-24T14:47:44;5.17;;;2.00;;
5831;SDS011;50943;51.448;7.646;2023-04-24T14:50:14;11.57;;;2.37;;
5831;SDS011;50943;51.448;7.646;2023-04-24T14:52:40;3.50;;;1.47;;
5831;SDS011;50943;51.448;7.646;2023-04-24T14:55:07;6.43;;;1.77;;
5831;SDS011;50943;51.448;7.646;2023-04-24T14:57:34;4.17;;;1.70;;
5831;SDS011;50943;51.448;7.646;2023-04-24T15:00:01;9.47;;;2.33;;
5831;SDS011;50943;51.448;7.646;2023-04-24T15:02:32;6.00;;;1.70;;